Time;durP1;ratioP1;P1;durP2;ratioP2;P2;SDS_P1;SDS_P2;PMS_P1;PMS_P2;Temp;Humidity;BMP_temperature;BMP_pressure;BME280_temperature;BME280_humidity;BME280_pressure;Samples;Min_cycle;Max_cycle;Signal;HPM_P1;HPM_P2
2023/01/28 00:02:03;;;;;;;68.53;24.30;;;;;;;-2.39;100.00;97266.59;10421090;23;20248;-59
2023/01/28 00:07:03;;;;;;;62.70;24.53;;;;;;;-2.40;100.00;97260.66;10373556;28;20284;-59
2023/01/28 00:12:04;;;;;;;58.83;21.93;;;;;;;-2.39;100.00;97262.31;10373503;28;20209;-59
2023/01/28 00:17:05;;;;;;;56.60;20.97;;;;;;;-2.36;100.00;97263.91;10373139;28;20193;-57
2023/01/28 00:22:05;;;;;;;56.00;21.40;;;;;;;-2.43;100.00;97263.34;10373038;28;20751;-58
2023/01/28 00:27:06;;;;;;;67.77;24.57;;;;;;;-2.41;100.00;97263.28;10372640;28;20668;-60
2023/01/28 00:32:06;;;;;;;61.80;23.03;;;;;;;-2.41;100.00;97261.53;10372894;28;20209;-59
2023/01/28 00:37:06;;;;;;;62.57;22.43;;;;;;;-2.35;100.00;97263.03;10354772;28;20189;-60
2023/01/28 00:42:07;;;;;;;62.00;22.93;;;;;;;-2.37;100.00;97257.97;10372248;28;20220;-61
2023/01/28 00:47:07;;;;;;;58.13;21.87;;;;;;;-2.31;100.00;97259.44;10354247;28;20185;-57
2023/01/28 00:52:07;;;;;;;62.80;21.77;;;;;;;-2.29;100.00;97256.81;10353239;28;20296;-60
2023/01/28 00:57:11;;;;;;;53.77;20.27;;;;;;;-2.27;100.00;97263.53;10353595;28;20196;-60
2023/01/28 01:02:11;;;;;;;41.17;17.97;;;;;;;-2.25;100.00;97256.63;10370040;28;20237;-59
2023/01/28 01:07:12;;;;;;;38.27;16.87;;;;;;;-2.23;100.00;97257.38;10370875;28;20196;-60
2023/01/28 01:12:12;;;;;;;38.07;16.50;;;;;;;-2.20;100.00;97267.53;10370271;28;20217;-59
2023/01/28 01:17:13;;;;;;;29.40;15.33;;;;;;;-2.18;100.00;97270.03;10352404;28;20203;-59
2023/01/28 01:22:13;;;;;;;23.73;10.73;;;;;;;-2.14;100.00;97271.56;10370029;28;20319;-58
2023/01/28 01:27:14;;;;;;;15.87;8.50;;;;;;;-2.18;100.00;97278.53;10369440;28;20739;-61
2023/01/28 01:32:15;;;;;;;15.87;8.23;;;;;;;-2.21;100.00;97288.13;10369907;28;20423;-58
2023/01/28 01:37:16;;;;;;;14.13;8.57;;;;;;;-2.29;100.00;97285.88;10369334;28;20197;-59
2023/01/28 01:42:16;;;;;;;12.80;7.47;;;;;;;-2.27;100.00;97296.06;10367955;28;20604;-58
2023/01/28 01:47:17;;;;;;;15.00;8.93;;;;;;;-2.39;100.00;97285.41;10369229;28;20219;-60
2023/01/28 01:52:23;;;;;;;17.20;10.83;;;;;;;-2.42;100.00;97288.09;10368412;28;20216;-58
2023/01/28 01:57:29;;;;;;;19.60;11.70;;;;;;;-2.50;100.00;97292.69;10351419;28;20185;-58
2023/01/28 02:02:29;;;;;;;19.40;11.50;;;;;;;-2.59;100.00;97299.03;10367616;28;20261;-57
2023/01/28 02:07:30;;;;;;;23.00;12.43;;;;;;;-2.59;100.00;97296.47;10368131;28;20212;-57
2023/01/28 02:12:34;;;;;;;21.10;13.23;;;;;;;-2.64;100.00;97295.81;10350755;28;20764;-60
2023/01/28 02:17:36;;;;;;;23.27;13.57;;;;;;;-2.74;100.00;97297.06;10334416;28;20335;-58
2023/01/28 02:23:06;;;;;;;30.70;14.70;;;;;;;-2.77;100.00;97289.47;10333683;28;20221;-57
2023/01/28 02:28:29;;;;;;;27.73;15.67;;;;;;;-2.73;100.00;97297.00;10349967;28;20220;-57
2023/01/28 02:33:36;;;;;;;24.23;14.70;;;;;;;-2.66;100.00;97289.06;10349806;28;20281;-59
2023/01/28 02:38:41;;;;;;;28.87;16.03;;;;;;;-2.71;100.00;97291.81;10333218;28;20200;-59
2023/01/28 02:43:45;;;;;;;29.73;14.60;;;;;;;-2.62;100.00;97298.31;10349319;28;20244;-59
2023/01/28 02:48:45;;;;;;;29.50;15.80;;;;;;;-2.65;100.00;97301.81;10349136;28;20213;-60
2023/01/28 02:53:59;;;;;;;37.57;16.50;;;;;;;-2.63;100.00;97304.34;10348083;28;20213;-59
2023/01/28 02:59:32;;;;;;;32.03;17.70;;;;;;;-2.74;100.00;97305.59;10348784;28;20185;-60
2023/01/28 03:04:44;;;;;;;32.87;17.77;;;;;;;-2.70;100.00;97308.88;10335388;28;20255;-59
2023/01/28 03:09:45;;;;;;;35.63;17.63;;;;;;;-2.73;100.00;97316.69;10349054;28;20191;-60
2023/01/28 03:36:47;;;;;;;30.93;15.60;;;;;;;-2.75;100.00;97332.13;10334940;28;20192;-58
2023/01/28 03:42:10;;;;;;;29.50;15.50;;;;;;;-2.71;100.00;97327.72;10347652;28;20745;-59
2023/01/28 03:47:22;;;;;;;28.90;15.20;;;;;;;-2.72;100.00;97321.75;10347991;28;20220;-59
2023/01/28 03:52:26;;;;;;;30.53;15.77;;;;;;;-2.67;100.00;97331.84;10347953;28;20205;-59
2023/01/28 03:57:31;;;;;;;25.40;14.80;;;;;;;-2.64;100.00;97328.31;10347790;28;20272;-60
2023/01/28 04:02:31;;;;;;;22.17;13.57;;;;;;;-2.61;100.00;97338.47;10341739;28;20230;-59
2023/01/28 04:07:32;;;;;;;22.27;11.67;;;;;;;-2.45;100.00;97334.41;10312105;28;20194;-60
2023/01/28 04:12:43;;;;;;;26.47;14.07;;;;;;;-2.64;100.00;97336.84;10314968;28;20235;-59
2023/01/28 04:17:46;;;;;;;37.93;16.10;;;;;;;-2.73;100.00;97334.63;10314816;28;20218;-60
2023/01/28 04:22:51;;;;;;;37.87;17.53;;;;;;;-2.72;100.00;97338.88;10315071;28;20313;-59
2023/01/28 04:27:54;;;;;;;40.70;17.13;;;;;;;-2.60;100.00;97335.00;10314952;28;20191;-59
2023/01/28 04:32:56;;;;;;;98.43;21.63;;;;;;;-2.84;100.00;97336.78;10332192;28;20202;-59
2023/01/28 04:38:05;;;;;;;52.10;19.60;;;;;;;-2.73;100.00;97337.19;10314612;28;20196;-58
2023/01/28 04:43:15;;;;;;;38.77;20.37;;;;;;;-2.70;100.00;97350.72;10314095;28;20313;-60
2023/01/28 04:48:29;;;;;;;38.93;19.60;;;;;;;-2.91;100.00;97334.44;10331818;28;20193;-59
2023/01/28 04:53:48;;;;;;;29.27;16.00;;;;;;;-3.01;100.00;97348.50;10332082;28;20214;-58
2023/01/28 04:59:08;;;;;;;33.40;17.90;;;;;;;-3.06;100.00;97358.09;10313866;28;20284;-60
2023/01/28 05:04:09;;;;;;;20.80;13.17;;;;;;;-3.12;100.00;97355.75;10313078;28;20245;-61
2023/01/28 05:09:12;;;;;;;20.83;13.43;;;;;;;-3.19;100.00;97369.69;10330712;28;20186;-61
2023/01/28 05:14:13;;;;;;;21.90;11.83;;;;;;;-3.28;100.00;97370.84;10313145;28;20210;-59
2023/01/28 05:19:18;;;;;;;21.33;11.23;;;;;;;-3.29;100.00;97362.31;10311773;28;20187;-58
2023/01/28 05:24:20;;;;;;;22.27;11.70;;;;;;;-3.28;100.00;97361.44;10312886;28;20234;-60
2023/01/28 05:29:20;;;;;;;22.13;11.73;;;;;;;-3.35;100.00;97359.97;10312241;28;20292;-57
2023/01/28 05:34:21;;;;;;;17.63;10.67;;;;;;;-3.46;100.00;97356.94;10312454;28;20205;-60
2023/01/28 05:39:22;;;;;;;20.87;10.97;;;;;;;-3.55;100.00;97365.81;10329571;28;20257;-60
2023/01/28 05:44:22;;;;;;;16.93;9.93;;;;;;;-3.80;100.00;97361.53;10329254;28;20205;-61
2023/01/28 05:49:32;;;;;;;16.13;9.67;;;;;;;-3.92;100.00;97356.81;10311902;28;20194;-60
2023/01/28 05:55:05;;;;;;;22.97;11.23;;;;;;;-3.98;100.00;97362.97;10326465;28;20221;-58
2023/01/28 06:00:06;;;;;;;19.27;12.43;;;;;;;-3.83;100.00;97361.63;10369008;28;20271;-60
2023/01/28 06:05:14;;;;;;;20.63;11.67;;;;;;;-4.01;100.00;97359.66;10387680;23;20243;-60
2023/01/28 06:10:18;;;;;;;20.23;11.93;;;;;;;-3.98;100.00;97359.56;10438053;28;20200;-64
2023/01/28 06:15:19;;;;;;;13.70;8.87;;;;;;;-4.17;100.00;97378.06;10454387;28;20290;-63
2023/01/28 06:20:35;;;;;;;16.83;10.33;;;;;;;-4.31;100.00;97375.13;10472689;28;20593;-62
2023/01/28 06:25:35;;;;;;;15.53;9.43;;;;;;;-4.35;100.00;97376.97;10477258;28;20207;-63
2023/01/28 06:30:40;;;;;;;12.80;9.07;;;;;;;-4.34;100.00;97391.41;10476176;28;20671;-62
2023/01/28 06:35:41;;;;;;;12.90;8.60;;;;;;;-4.41;100.00;97389.94;10494832;28;20241;-64
2023/01/28 06:40:41;;;;;;;11.93;8.70;;;;;;;-4.42;100.00;97385.69;10491227;28;20326;-62
2023/01/28 06:45:42;;;;;;;15.13;10.53;;;;;;;-4.53;100.00;97390.31;10493711;28;20297;-62
2023/01/28 06:50:42;;;;;;;22.30;10.43;;;;;;;-4.49;100.00;97395.28;10492605;28;20187;-64
2023/01/28 06:55:43;;;;;;;13.17;8.87;;;;;;;-4.58;100.00;97402.38;10493630;28;20289;-64
2023/01/28 07:00:43;;;;;;;13.73;8.00;;;;;;;-4.55;100.00;97408.25;10494073;28;20233;-63
2023/01/28 07:05:43;;;;;;;16.50;10.40;;;;;;;-4.63;100.00;97405.06;10493559;28;20349;-64
2023/01/28 07:10:44;;;;;;;14.10;10.00;;;;;;;-4.60;100.00;97411.81;10493703;28;20245;-63
2023/01/28 07:15:44;;;;;;;14.40;8.77;;;;;;;-4.59;100.00;97411.78;10493700;28;20225;-65
2023/01/28 07:20:44;;;;;;;14.90;8.03;;;;;;;-4.79;100.00;97416.63;10460170;28;20224;-64
2023/01/28 07:25:45;;;;;;;15.03;8.10;;;;;;;-4.75;100.00;97418.22;10452218;28;20207;-65
2023/01/28 07:30:49;;;;;;;12.83;8.00;;;;;;;-4.82;100.00;97415.03;10451575;28;20203;-63
2023/01/28 07:35:49;;;;;;;12.90;8.73;;;;;;;-4.88;100.00;97417.75;10448480;28;20947;-63
2023/01/28 07:40:50;;;;;;;13.10;8.53;;;;;;;-4.88;100.00;97417.75;10438817;28;20513;-65
2023/01/28 07:45:50;;;;;;;14.63;8.80;;;;;;;-4.82;100.00;97429.50;10417019;28;20212;-63
2023/01/28 07:50:51;;;;;;;11.43;8.00;;;;;;;-4.72;100.00;97429.19;10417519;28;20561;-62
2023/01/28 07:55:51;;;;;;;16.30;8.50;;;;;;;-4.60;100.00;97429.72;10416632;28;20585;-63
2023/01/28 08:00:55;;;;;;;12.17;8.03;;;;;;;-4.80;100.00;97415.81;10453110;28;20223;-65
2023/01/28 08:05:56;;;;;;;15.90;7.87;;;;;;;-4.74;100.00;97435.25;10457262;28;20244;-63
2023/01/28 08:10:57;;;;;;;12.33;7.80;;;;;;;-4.89;100.00;97423.72;10457440;28;20285;-62
2023/01/28 08:15:58;;;;;;;15.97;8.57;;;;;;;-4.76;100.00;97435.28;10427531;28;20235;-62
2023/01/28 08:20:58;;;;;;;11.07;6.93;;;;;;;-4.81;100.00;97439.66;10416216;28;20757;-62
2023/01/28 08:25:59;;;;;;;13.80;7.30;;;;;;;-4.87;100.00;97445.81;10457264;28;20257;-62
2023/01/28 08:31:00;;;;;;;12.43;6.50;;;;;;;-4.73;100.00;97435.19;10455820;28;20188;-62
2023/01/28 08:36:04;;;;;;;15.10;6.87;;;;;;;-4.71;100.00;97441.09;10456497;28;20234;-64
2023/01/28 08:41:04;;;;;;;7.33;5.77;;;;;;;-4.89;100.00;97439.06;10455948;28;20235;-64
2023/01/28 08:46:06;;;;;;;9.03;6.20;;;;;;;-4.80;100.00;97438.81;10456764;28;20584;-64
2023/01/28 08:51:06;;;;;;;10.33;6.60;;;;;;;-4.80;100.00;97441.34;10457535;28;20192;-64
2023/01/28 08:56:07;;;;;;;9.37;6.40;;;;;;;-4.77;100.00;97461.72;10455226;28;20208;-63
2023/01/28 09:01:07;;;;;;;9.93;4.97;;;;;;;-4.75;100.00;97457.38;10454718;28;20220;-64
2023/01/28 09:06:11;;;;;;;8.00;5.30;;;;;;;-4.58;100.00;97458.63;10455167;28;20267;-63
2023/01/28 09:11:11;;;;;;;6.77;4.97;;;;;;;-4.37;100.00;97465.66;10455243;28;20220;-63
2023/01/28 09:16:11;;;;;;;11.07;5.00;;;;;;;-4.40;100.00;97470.03;10455480;28;20239;-63
2023/01/28 09:21:12;;;;;;;10.37;5.20;;;;;;;-4.30;100.00;97466.34;10454805;28;20281;-63
2023/01/28 09:26:12;;;;;;;5.67;4.50;;;;;;;-4.17;100.00;97469.34;10454931;28;20318;-65
2023/01/28 09:31:19;;;;;;;6.27;4.73;;;;;;;-4.13;100.00;97466.66;10454582;28;20188;-64
2023/01/28 09:36:28;;;;;;;7.87;6.30;;;;;;;-4.24;100.00;97467.84;10453125;28;20211;-64
2023/01/28 09:42:10;;;;;;;9.53;5.57;;;;;;;-4.10;100.00;97470.84;10454330;28;20622;-64
2023/01/28 09:47:29;;;;;;;9.43;5.17;;;;;;;-3.97;100.00;97461.88;10454080;28;20614;-65
2023/01/28 09:52:35;;;;;;;12.57;6.80;;;;;;;-3.72;100.00;97466.25;10452151;28;20278;-65
2023/01/28 09:57:42;;;;;;;9.53;5.50;;;;;;;-3.94;100.00;97471.19;10453316;28;20219;-63
2023/01/28 10:03:05;;;;;;;8.23;4.33;;;;;;;-3.85;100.00;97464.94;10411852;28;20269;-65
2023/01/28 10:08:37;;;;;;;10.00;5.60;;;;;;;-3.66;100.00;97467.75;10439442;28;20239;-65
2023/01/28 10:21:06;;;;;;;8.17;3.60;;;;;;;-3.49;100.00;97457.78;10204628;29;20232;-63
2023/01/28 10:32:27;;;;;;;5.63;3.77;;;;;;;-3.60;100.00;97454.72;10312802;28;20205;-64
2023/01/28 10:37:28;;;;;;;7.93;4.10;;;;;;;-3.28;100.00;97458.81;10381559;28;20255;-65
2023/01/28 10:42:30;;;;;;;7.20;4.90;;;;;;;-3.42;100.00;97461.81;10410169;28;20700;-62
2023/01/28 10:47:43;;;;;;;14.80;6.20;;;;;;;-3.44;100.00;97470.44;10410540;28;20579;-63
2023/01/28 10:52:56;;;;;;;17.30;8.43;;;;;;;-3.45;100.00;97468.75;10392949;28;20188;-65
2023/01/28 10:57:58;;;;;;;6.27;4.73;;;;;;;-3.54;100.00;97484.44;10409951;28;20796;-64
2023/01/28 11:02:58;;;;;;;8.63;5.20;;;;;;;-3.50;100.00;97475.78;10422831;28;20220;-62
2023/01/28 11:08:13;;;;;;;9.10;4.53;;;;;;;-3.55;100.00;97483.59;10407514;28;20260;-62
2023/01/28 11:13:19;;;;;;;4.13;3.40;;;;;;;-3.66;100.00;97468.59;10410116;28;20181;-64
2023/01/28 11:18:26;;;;;;;5.73;3.00;;;;;;;-3.35;100.00;97474.41;10409660;28;20258;-61
2023/01/28 11:23:29;;;;;;;10.57;3.80;;;;;;;-3.69;100.00;97467.84;10393117;28;20692;-61
2023/01/28 11:28:30;;;;;;;7.27;3.87;;;;;;;-3.44;100.00;97470.44;10410381;28;20205;-62
2023/01/28 11:33:41;;;;;;;8.13;3.20;;;;;;;-3.18;100.00;97467.00;10410887;28;20631;-63
2023/01/28 11:39:10;;;;;;;6.00;3.87;;;;;;;-3.81;100.00;97463.97;10397224;28;20588;-63
2023/01/28 11:44:21;;;;;;;4.50;3.60;;;;;;;-3.69;100.00;97466.13;10434411;28;20710;-60
2023/01/28 11:49:41;;;;;;;7.23;4.07;;;;;;;-3.43;100.00;97459.28;10455569;28;20207;-62
2023/01/28 11:54:53;;;;;;;7.17;4.20;;;;;;;-3.53;100.00;97463.91;10467347;28;20203;-62
2023/01/28 12:00:03;;;;;;;5.43;3.83;;;;;;;-3.64;100.00;97456.56;10481877;28;20215;-60
2023/01/28 12:05:29;;;;;;;5.27;3.20;;;;;;;-3.54;100.00;97448.59;10468110;28;20211;-61
2023/01/28 12:10:39;;;;;;;7.80;3.47;;;;;;;-3.95;100.00;97451.63;10466497;28;20211;-62
2023/01/28 12:16:18;;;;;;;6.53;3.50;;;;;;;-3.82;100.00;97454.63;10486636;28;20227;-62
2023/01/28 12:21:50;;;;;;;3.77;3.30;;;;;;;-3.67;100.00;97454.13;10422386;28;20223;-62
2023/01/28 12:27:10;;;;;;;4.77;3.23;;;;;;;-3.59;100.00;97447.00;10467416;28;20627;-61
2023/01/28 12:32:38;;;;;;;4.67;3.57;;;;;;;-3.80;100.00;97463.94;10479846;22;20242;-66
2023/01/28 12:37:47;;;;;;;6.00;3.77;;;;;;;-3.65;100.00;97452.31;10471383;28;20282;-64
2023/01/28 12:42:51;;;;;;;6.93;3.70;;;;;;;-3.33;100.00;97447.03;10449725;28;20231;-65
2023/01/28 12:48:00;;;;;;;9.87;4.53;;;;;;;-3.76;100.00;97449.28;10495923;28;20191;-67
2023/01/28 12:53:23;;;;;;;5.23;3.27;;;;;;;-3.77;100.00;97445.06;10478478;28;20289;-65
2023/01/28 12:58:34;;;;;;;5.17;3.60;;;;;;;-3.75;100.00;97433.06;10495919;28;20367;-65
2023/01/28 13:03:52;;;;;;;6.63;3.77;;;;;;;-3.92;100.00;97419.94;10478236;28;20711;-65
2023/01/28 13:08:59;;;;;;;4.43;3.23;;;;;;;-4.14;100.00;97430.88;10495180;28;20584;-65
2023/01/28 13:13:59;;;;;;;12.37;5.80;;;;;;;-4.33;100.00;97425.50;10477158;28;20200;-64
2023/01/28 13:19:08;;;;;;;4.23;3.60;;;;;;;-4.05;100.00;97419.53;10494765;28;20198;-64
2023/01/28 13:24:08;;;;;;;4.33;3.43;;;;;;;-3.95;100.00;97429.41;10477260;28;20597;-64
2023/01/28 13:29:30;;;;;;;8.87;4.63;;;;;;;-3.91;100.00;97434.44;10494405;28;20214;-66
2023/01/28 13:34:39;;;;;;;6.77;4.07;;;;;;;-3.85;100.00;97444.47;10494247;28;20555;-65
2023/01/28 13:39:46;;;;;;;8.13;4.40;;;;;;;-4.08;100.00;97443.47;10462406;28;20224;-64
2023/01/28 13:44:46;;;;;;;6.50;4.20;;;;;;;-4.03;100.00;97449.28;10400940;28;20212;-64
2023/01/28 13:49:50;;;;;;;7.23;4.33;;;;;;;-4.02;100.00;97461.19;10450497;28;20652;-65
2023/01/28 13:55:11;;;;;;;5.53;3.80;;;;;;;-4.07;100.00;97463.06;10433558;28;20208;-65
2023/01/28 14:00:14;;;;;;;7.20;3.57;;;;;;;-4.06;100.00;97458.78;10450946;28;20239;-65
2023/01/28 14:05:56;;;;;;;4.47;3.53;;;;;;;-4.13;100.00;97464.09;10434574;28;20215;-65
2023/01/28 14:11:00;;;;;;;5.50;3.30;;;;;;;-4.04;100.00;97474.91;10432704;28;20222;-65
2023/01/28 14:16:18;;;;;;;8.47;4.07;;;;;;;-4.33;100.00;97482.59;10450828;28;21083;-63
2023/01/28 14:21:19;;;;;;;5.57;4.53;;;;;;;-4.09;100.00;97480.16;10449788;28;20899;-65
2023/01/28 14:26:33;;;;;;;7.67;3.87;;;;;;;-4.20;100.00;97490.72;10449990;28;20656;-65
2023/01/28 14:31:35;;;;;;;9.23;4.63;;;;;;;-4.35;100.00;97486.94;10432022;28;20226;-64
2023/01/28 14:36:40;;;;;;;9.37;4.60;;;;;;;-4.26;100.00;97497.75;10449757;28;20184;-65
2023/01/28 14:41:43;;;;;;;5.33;4.60;;;;;;;-4.26;100.00;97497.75;10448932;28;20575;-65
2023/01/28 14:46:53;;;;;;;8.67;6.07;;;;;;;-4.26;100.00;97500.31;10451142;28;20245;-64
2023/01/28 14:52:01;;;;;;;8.40;5.70;;;;;;;-4.23;100.00;97495.13;10463481;28;20212;-65
2023/01/28 14:57:16;;;;;;;13.13;7.13;;;;;;;-4.25;100.00;97495.16;10441938;28;20203;-66
2023/01/28 15:02:22;;;;;;;9.43;6.23;;;;;;;-4.20;100.00;97495.84;10476847;28;20219;-65
2023/01/28 15:07:26;;;;;;;14.50;7.03;;;;;;;-4.25;100.00;97491.78;10443344;28;20201;-65
2023/01/28 15:12:27;;;;;;;10.03;4.93;;;;;;;-4.34;100.00;97488.59;10468799;28;20230;-64
2023/01/28 15:17:27;;;;;;;13.80;8.03;;;;;;;-4.26;100.00;97502.88;10476424;28;20286;-64
2023/01/28 15:22:28;;;;;;;17.90;10.00;;;;;;;-4.18;100.00;97485.56;10489771;28;20580;-64
2023/01/28 15:27:29;;;;;;;14.07;8.67;;;;;;;-4.44;100.00;97486.34;10489870;28;20199;-63
2023/01/28 15:32:30;;;;;;;11.00;6.57;;;;;;;-4.44;100.00;97491.47;10471413;28;20325;-64
2023/01/28 15:37:30;;;;;;;11.87;6.60;;;;;;;-4.37;100.00;97498.91;10489856;28;20733;-64
2023/01/28 15:42:31;;;;;;;13.63;7.40;;;;;;;-4.58;100.00;97484.19;10489507;28;20222;-63
2023/01/28 15:47:33;;;;;;;14.93;9.73;;;;;;;-4.61;100.00;97484.28;10488731;28;20274;-63
2023/01/28 15:52:36;;;;;;;11.23;6.60;;;;;;;-4.63;100.00;97489.44;10472157;28;20710;-63
2023/01/28 15:57:36;;;;;;;12.53;6.10;;;;;;;-4.74;100.00;97484.63;10490049;28;20190;-65
2023/01/28 16:02:44;;;;;;;24.73;13.90;;;;;;;-4.80;100.00;97472.03;10495000;28;20221;-64
2023/01/28 16:07:45;;;;;;;62.77;29.60;;;;;;;-4.78;100.00;97466.88;10498253;28;20290;-62
2023/01/28 16:12:54;;;;;;;35.27;16.63;;;;;;;-4.72;100.00;97464.97;10497075;28;20268;-66
2023/01/28 16:17:54;;;;;;;13.27;8.97;;;;;;;-4.74;100.00;97458.25;10479062;28;20675;-63
2023/01/28 16:23:00;;;;;;;10.27;6.10;;;;;;;-4.76;100.00;97458.28;10496882;28;20254;-64
2023/01/28 16:28:02;;;;;;;9.80;6.87;;;;;;;-4.74;100.00;97461.63;10495565;28;20282;-62
2023/01/28 16:33:02;;;;;;;17.13;9.30;;;;;;;-4.89;100.00;97455.22;10476983;28;20219;-64
2023/01/28 16:38:02;;;;;;;9.73;4.60;;;;;;;-4.83;100.00;97467.00;10496167;28;20199;-63
2023/01/28 16:43:03;;;;;;;12.67;5.37;;;;;;;-4.81;100.00;97490.78;10494724;28;20231;-64
2023/01/28 16:48:03;;;;;;;9.87;6.50;;;;;;;-4.72;100.00;97482.03;10493945;28;20267;-64
2023/01/28 16:53:05;;;;;;;6.27;4.47;;;;;;;-4.74;100.00;97494.84;10492840;28;20195;-63
2023/01/28 16:58:05;;;;;;;6.47;3.80;;;;;;;-4.78;100.00;97483.03;10472300;28;20243;-64
2023/01/28 17:03:05;;;;;;;6.97;5.00;;;;;;;-4.90;100.00;97497.00;10493593;28;20702;-64
2023/01/28 17:08:06;;;;;;;5.60;4.30;;;;;;;-4.90;100.00;97493.59;10494712;28;20659;-65
2023/01/28 17:13:06;;;;;;;9.33;5.03;;;;;;;-4.82;100.00;97485.72;10494097;28;20594;-64
2023/01/28 17:18:09;;;;;;;7.70;4.47;;;;;;;-5.07;100.00;97476.16;10494332;28;20580;-65
2023/01/28 17:23:16;;;;;;;8.80;6.30;;;;;;;-4.94;100.00;97486.91;10452246;28;20303;-64
2023/01/28 17:28:16;;;;;;;12.60;6.53;;;;;;;-5.04;100.00;97497.38;10451628;28;20188;-65
2023/01/28 17:33:17;;;;;;;27.87;13.87;;;;;;;-5.14;100.00;97510.44;10452435;28;20734;-66
2023/01/28 17:38:17;;;;;;;9.73;6.07;;;;;;;-5.11;100.00;97523.97;10449050;28;20184;-65
2023/01/28 17:43:18;;;;;;;5.50;4.30;;;;;;;-5.00;100.00;97530.50;10410564;28;20228;-65
2023/01/28 17:48:18;;;;;;;7.23;4.87;;;;;;;-5.05;100.00;97541.69;10410702;28;20547;-65
2023/01/28 17:53:19;;;;;;;9.67;4.73;;;;;;;-5.16;100.00;97559.00;10411160;28;20204;-65
2023/01/28 17:58:19;;;;;;;7.27;4.30;;;;;;;-5.09;100.00;97562.25;10411092;28;20200;-65
2023/01/28 18:03:20;;;;;;;7.87;5.10;;;;;;;-5.09;100.00;97564.78;10410761;28;20293;-65
2023/01/28 18:08:20;;;;;;;9.13;6.27;;;;;;;-5.04;100.00;97571.47;10410808;28;20195;-64
2023/01/28 18:13:21;;;;;;;11.37;6.87;;;;;;;-5.07;100.00;97566.44;10410199;28;20366;-64
2023/01/28 18:18:21;;;;;;;12.17;8.77;;;;;;;-5.00;100.00;97564.56;10411432;28;20188;-65
2023/01/28 18:23:21;;;;;;;11.43;7.33;;;;;;;-5.05;100.00;97561.28;10410508;28;20246;-64
2023/01/28 18:28:22;;;;;;;15.53;8.37;;;;;;;-5.06;100.00;97557.06;10409603;28;20719;-65
2023/01/28 18:33:23;;;;;;;11.27;7.73;;;;;;;-4.87;100.00;97552.28;10409499;28;20696;-65
2023/01/28 18:38:23;;;;;;;10.57;4.90;;;;;;;-4.80;100.00;97533.38;10410134;28;20200;-64
2023/01/28 18:43:25;;;;;;;6.53;4.43;;;;;;;-4.90;100.00;97547.25;10410201;28;20228;-65
2023/01/28 18:48:25;;;;;;;8.27;5.23;;;;;;;-5.22;100.00;97554.06;10409482;28;20607;-64
2023/01/28 18:53:26;;;;;;;8.47;5.57;;;;;;;-5.29;100.00;97567.84;10409384;28;20219;-65
2023/01/28 18:58:26;;;;;;;10.37;6.27;;;;;;;-5.26;100.00;97580.53;10410408;28;20227;-65
2023/01/28 19:03:27;;;;;;;9.70;6.30;;;;;;;-5.26;100.00;97590.75;10409107;28;20219;-65
2023/01/28 19:08:27;;;;;;;11.17;6.73;;;;;;;-5.31;100.00;97590.00;10410140;28;20223;-63
2023/01/28 19:13:28;;;;;;;9.63;6.60;;;;;;;-5.29;100.00;97609.53;10408941;28;20212;-66
2023/01/28 19:18:28;;;;;;;10.43;7.20;;;;;;;-5.32;100.00;97624.09;10409133;28;20188;-65
2023/01/28 19:23:29;;;;;;;14.40;8.30;;;;;;;-5.30;100.00;97638.50;10408152;28;20220;-66
2023/01/28 19:28:31;;;;;;;14.60;8.80;;;;;;;-5.24;100.00;97640.06;10407958;28;20239;-64
2023/01/28 19:33:32;;;;;;;16.67;9.77;;;;;;;-5.27;100.00;97647.81;10408139;28;20228;-65
2023/01/28 19:38:32;;;;;;;15.50;9.47;;;;;;;-5.13;100.00;97638.13;10412868;28;20200;-65
2023/01/28 19:43:33;;;;;;;18.67;9.97;;;;;;;-5.13;100.00;97635.56;10416543;28;20228;-65
2023/01/28 19:48:33;;;;;;;21.03;10.83;;;;;;;-4.90;100.00;97629.88;10415632;28;20188;-65
2023/01/28 19:53:34;;;;;;;15.20;8.97;;;;;;;-4.73;100.00;97623.47;10416217;28;20238;-65
2023/01/28 19:58:37;;;;;;;24.73;10.43;;;;;;;-4.90;100.00;97608.59;10415933;28;20254;-65
2023/01/28 20:03:38;;;;;;;19.57;9.87;;;;;;;-4.88;100.00;97594.06;10415633;28;20736;-65
2023/01/28 20:08:38;;;;;;;16.40;10.47;;;;;;;-4.94;100.00;97600.16;10416008;28;20199;-63
2023/01/28 20:13:41;;;;;;;22.63;11.50;;;;;;;-4.96;100.00;97608.75;10415384;28;20244;-64
2023/01/28 20:18:41;;;;;;;17.30;10.30;;;;;;;-4.98;100.00;97607.97;10395807;28;20205;-64
2023/01/28 20:23:42;;;;;;;20.40;10.73;;;;;;;-5.05;100.00;97595.34;10414224;28;20236;-64
2023/01/28 20:28:42;;;;;;;19.60;11.00;;;;;;;-5.03;100.00;97598.69;10413781;28;20271;-64
2023/01/28 20:33:43;;;;;;;21.90;11.03;;;;;;;-5.03;100.00;97592.75;10414137;28;20236;-64
2023/01/28 20:38:44;;;;;;;20.17;11.20;;;;;;;-5.21;100.00;97587.22;10413139;28;20197;-66
2023/01/28 20:43:45;;;;;;;17.20;10.37;;;;;;;-5.17;100.00;97582.88;10413089;28;20225;-65
2023/01/28 20:48:46;;;;;;;22.33;10.83;;;;;;;-5.09;100.00;97580.94;10433738;28;20658;-65
2023/01/28 20:53:47;;;;;;;19.67;10.47;;;;;;;-5.15;100.00;97578.56;10468716;28;20313;-65
2023/01/28 20:58:53;;;;;;;34.63;14.93;;;;;;;-5.24;100.00;97563.47;10487756;28;20187;-64
2023/01/28 21:03:54;;;;;;;30.03;14.03;;;;;;;-5.23;100.00;97585.56;10456679;28;20235;-66
2023/01/28 21:08:55;;;;;;;16.47;9.70;;;;;;;-5.45;100.00;97581.00;10416615;28;20196;-65
2023/01/28 21:13:56;;;;;;;24.83;12.00;;;;;;;-5.26;100.00;97585.66;10418601;28;20213;-66
2023/01/28 21:18:56;;;;;;;25.63;11.20;;;;;;;-5.10;100.00;97588.66;10412854;28;20250;-67
2023/01/28 21:24:00;;;;;;;17.23;10.23;;;;;;;-5.17;100.00;97579.50;10426517;28;20238;-65
2023/01/28 21:29:00;;;;;;;19.33;9.60;;;;;;;-5.27;100.00;97594.19;10410622;28;21114;-64
2023/01/28 21:34:00;;;;;;;17.70;10.23;;;;;;;-5.25;100.00;97600.94;10438406;28;20305;-66
2023/01/28 21:39:02;;;;;;;16.53;9.17;;;;;;;-5.17;100.00;97610.97;10492263;28;20198;-64
2023/01/28 21:44:02;;;;;;;15.17;9.87;;;;;;;-4.99;100.00;97626.72;10493906;28;20327;-65
2023/01/28 21:49:04;;;;;;;16.73;9.50;;;;;;;-5.08;100.00;97615.03;10494132;28;20761;-64
2023/01/28 21:54:08;;;;;;;24.27;10.00;;;;;;;-4.92;100.00;97623.97;10493422;28;20227;-66
2023/01/28 21:59:29;;;;;;;14.93;9.33;;;;;;;-5.00;100.00;97607.16;10493173;28;20682;-66
2023/01/28 22:04:34;;;;;;;12.00;7.83;;;;;;;-5.06;100.00;97605.59;10480476;28;20207;-65
2023/01/28 22:09:34;;;;;;;13.53;9.03;;;;;;;-5.17;100.00;97582.88;10451140;28;20192;-66
2023/01/28 22:14:36;;;;;;;13.37;8.67;;;;;;;-5.25;100.00;97595.00;10443922;28;20208;-64
2023/01/28 22:19:37;;;;;;;13.47;7.37;;;;;;;-5.20;100.00;97588.06;10447482;28;20275;-65
2023/01/28 22:24:37;;;;;;;26.57;11.63;;;;;;;-5.41;100.00;97580.03;10449795;28;20227;-65
2023/01/28 22:29:38;;;;;;;14.37;8.23;;;;;;;-5.32;100.00;97573.84;10449598;28;20214;-66
2023/01/28 22:34:38;;;;;;;15.77;9.40;;;;;;;-5.31;100.00;97579.78;10472593;28;20231;-64
2023/01/28 22:39:38;;;;;;;12.20;7.57;;;;;;;-5.49;100.00;97571.72;10477805;28;20401;-65
2023/01/28 22:44:39;;;;;;;12.93;7.67;;;;;;;-5.23;100.00;97572.81;10484868;28;20231;-63
2023/01/28 22:49:39;;;;;;;13.47;7.87;;;;;;;-5.29;100.00;97573.78;10490946;28;20195;-65
2023/01/28 22:54:39;;;;;;;13.63;7.47;;;;;;;-5.12;100.00;97570.81;10491688;28;20294;-65
2023/01/28 22:59:40;;;;;;;12.33;7.17;;;;;;;-5.22;100.00;97577.88;10492213;28;20191;-65
2023/01/28 23:04:42;;;;;;;14.37;8.27;;;;;;;-5.43;100.00;97574.13;10491102;28;20227;-67
2023/01/28 23:09:45;;;;;;;13.97;7.83;;;;;;;-5.26;100.00;97573.72;10492368;28;20577;-66
2023/01/28 23:25:24;;;;;;;11.90;7.30;;;;;;;-5.27;100.00;97586.53;10489809;28;20211;-66
2023/01/28 23:30:24;;;;;;;15.57;7.77;;;;;;;-5.27;100.00;97587.38;10490272;28;20560;-65
2023/01/28 23:35:24;;;;;;;14.23;8.27;;;;;;;-5.26;100.00;97591.59;10489928;28;20681;-64
2023/01/28 23:40:26;;;;;;;14.33;8.43;;;;;;;-5.22;100.00;97588.09;10489556;28;20227;-63
2023/01/28 23:45:26;;;;;;;15.23;7.93;;;;;;;-5.15;100.00;97578.56;10489978;28;20215;-63
2023/01/28 23:50:26;;;;;;;11.73;7.57;;;;;;;-5.14;100.00;97577.69;10489544;28;20269;-63